Terminal Aerodrome Forecast
Issued by NWS

Home | Current Version | Previous Version | Text Only | Print | Product List | Glossary On
Versions: 1 2 3 4 5 6 7 8 9 10 11 12 13 14 15 16 17 18 19 20 21 22 23 24 25 26 27 28 29 30 31 32
000
FTUS43 KDLH 251700
TAFBRD
TAF
KBRD 251729Z 2518/2618 29021G35KT P6SM OVC020
     FM252000 31020G35KT P6SM -SHSN OVC025
     FM260300 33016G28KT P6SM OVC035
     FM260900 34012G20KT P6SM BKN035
     FM261500 34013KT P6SM SCT040=

USA.gov is the U.S. government's official web portal to all federal, state and local government web resources and services.